Time;durP1;ratioP1;P1;durP2;ratioP2;P2;SDS_P1;SDS_P2;PMS_P1;PMS_P2;Temp;Humidity;BMP_temperature;BMP_pressure;BME280_temperature;BME280_humidity;BME280_pressure;Samples;Min_cycle;Max_cycle;Signal;HPM_P1;HPM_P2
2023/10/18 00:00:49;;;;;;;1.77;1.50;;;;;;;;;;5042097;28;20056;-56
2023/10/18 00:03:15;;;;;;;1.30;1.20;;;;;;;;;;5064029;28;20105;-56
2023/10/18 00:05:41;;;;;;;0.80;0.80;;;;;;;;;;5062772;28;20041;-55
2023/10/18 00:08:09;;;;;;;1.40;1.30;;;;;;;;;;5063213;28;20387;-57
2023/10/18 00:10:36;;;;;;;1.10;1.00;;;;;;;;;;5064025;28;20414;-56
2023/10/18 00:13:02;;;;;;;1.67;1.10;;;;;;;;;;5061608;28;20040;-57
2023/10/18 00:15:28;;;;;;;1.20;1.10;;;;;;;;;;5061693;28;20071;-56
2023/10/18 00:17:55;;;;;;;2.13;1.80;;;;;;;;;;5060396;28;20094;-56
2023/10/18 00:20:25;;;;;;;1.58;1.48;;;;;;;;;;5062894;28;20032;-57
2023/10/18 00:22:51;;;;;;;1.50;1.30;;;;;;;;;;5062896;28;20044;-57
2023/10/18 00:25:19;;;;;;;1.48;1.38;;;;;;;;;;5063337;28;20162;-56
2023/10/18 00:27:46;;;;;;;1.60;1.50;;;;;;;;;;5061459;28;20450;-56
2023/10/18 00:30:12;;;;;;;1.52;1.42;;;;;;;;;;5061866;28;20098;-55
2023/10/18 00:32:39;;;;;;;1.70;1.60;;;;;;;;;;5061137;28;20041;-56
2023/10/18 00:35:23;;;;;;;2.00;1.88;;;;;;;;;;5058008;28;20745;-56
2023/10/18 00:37:49;;;;;;;1.60;1.50;;;;;;;;;;5064067;28;20056;-56
2023/10/18 00:42:55;;;;;;;1.55;1.33;;;;;;;;;;5059856;28;20075;-57
2023/10/18 00:45:22;;;;;;;1.67;1.58;;;;;;;;;;5061053;28;20113;-56
2023/10/18 00:47:49;;;;;;;1.58;1.42;;;;;;;;;;5062733;28;20040;-57
2023/10/18 00:50:18;;;;;;;1.70;1.60;;;;;;;;;;5060029;28;20040;-55
2023/10/18 00:52:44;;;;;;;1.92;1.70;;;;;;;;;;5063125;28;20391;-56
2023/10/18 00:55:10;;;;;;;2.08;1.88;;;;;;;;;;5058752;28;20103;-57
2023/10/18 00:57:37;;;;;;;1.58;1.48;;;;;;;;;;5062512;28;20044;-56
2023/10/18 01:00:12;;;;;;;1.77;1.67;;;;;;;;;;5060705;28;20067;-57
2023/10/18 01:02:43;;;;;;;1.00;1.00;;;;;;;;;;5062840;28;20064;-56
2023/10/18 01:05:14;;;;;;;1.50;1.30;;;;;;;;;;5065205;28;20141;-56
2023/10/18 01:07:40;;;;;;;1.70;1.60;;;;;;;;;;5066711;28;20400;-56
2023/10/18 01:10:07;;;;;;;1.60;1.48;;;;;;;;;;5066162;28;20047;-57
2023/10/18 01:12:39;;;;;;;1.95;1.63;;;;;;;;;;5067498;28;20476;-56
2023/10/18 01:15:06;;;;;;;2.30;1.80;;;;;;;;;;5066364;28;20094;-56
2023/10/18 01:17:42;;;;;;;1.90;1.70;;;;;;;;;;5064708;28;20598;-56
2023/10/18 01:20:27;;;;;;;1.52;1.42;;;;;;;;;;5066105;28;20056;-56
2023/10/18 01:22:54;;;;;;;1.40;1.30;;;;;;;;;;5066717;28;20599;-56
2023/10/18 01:25:20;;;;;;;2.17;1.60;;;;;;;;;;5064718;28;20107;-57
2023/10/18 01:27:46;;;;;;;1.20;1.10;;;;;;;;;;5066299;28;20041;-56
2023/10/18 01:30:15;;;;;;;2.30;1.95;;;;;;;;;;5066588;28;20044;-55
2023/10/18 01:32:41;;;;;;;1.60;1.50;;;;;;;;;;5066367;28;20543;-56
2023/10/18 01:35:07;;;;;;;1.55;1.42;;;;;;;;;;5063630;28;20033;-56
2023/10/18 01:37:34;;;;;;;1.48;1.38;;;;;;;;;;5066562;28;20032;-56
2023/10/18 01:40:20;;;;;;;1.52;1.40;;;;;;;;;;5065655;28;20045;-57
2023/10/18 01:42:48;;;;;;;1.38;1.13;;;;;;;;;;5063361;28;20052;-56
2023/10/18 01:45:21;;;;;;;1.20;1.10;;;;;;;;;;5063460;28;20055;-56
2023/10/18 01:47:48;;;;;;;1.08;1.00;;;;;;;;;;5065846;28;20041;-56
2023/10/18 01:50:15;;;;;;;1.60;1.50;;;;;;;;;;5064662;28;20053;-56
2023/10/18 01:52:42;;;;;;;2.15;1.95;;;;;;;;;;5064577;28;20040;-56
2023/10/18 01:55:12;;;;;;;1.80;1.70;;;;;;;;;;5063858;28;20075;-56
2023/10/18 01:57:38;;;;;;;2.45;1.73;;;;;;;;;;5062851;28;20119;-56
2023/10/18 02:00:04;;;;;;;2.25;2.05;;;;;;;;;;5063732;28;20564;-57
2023/10/18 02:02:32;;;;;;;2.25;2.00;;;;;;;;;;5044959;28;20090;-56
2023/10/18 02:04:59;;;;;;;1.80;1.70;;;;;;;;;;5058960;28;20045;-56
2023/10/18 02:07:25;;;;;;;1.85;1.75;;;;;;;;;;5063662;28;20447;-56
2023/10/18 02:09:57;;;;;;;1.67;1.27;;;;;;;;;;5066384;28;20098;-56
2023/10/18 02:12:27;;;;;;;1.30;1.20;;;;;;;;;;5061572;28;20469;-56
2023/10/18 02:14:56;;;;;;;1.65;1.55;;;;;;;;;;5062291;28;20047;-56
2023/10/18 02:17:22;;;;;;;1.85;1.70;;;;;;;;;;5047198;28;20157;-56
2023/10/18 02:19:48;;;;;;;1.60;1.50;;;;;;;;;;5066031;28;20072;-57
2023/10/18 02:22:16;;;;;;;2.03;1.70;;;;;;;;;;5062707;28;20489;-56
2023/10/18 02:24:45;;;;;;;1.98;1.77;;;;;;;;;;5065027;28;20044;-56
2023/10/18 02:27:19;;;;;;;2.65;2.45;;;;;;;;;;5064654;28;20041;-56
2023/10/18 02:29:46;;;;;;;2.92;2.45;;;;;;;;;;5063899;28;20593;-56
2023/10/18 02:32:23;;;;;;;2.28;2.08;;;;;;;;;;5066757;28;20120;-56
2023/10/18 02:34:52;;;;;;;3.55;2.00;;;;;;;;;;5066076;28;20044;-56
2023/10/18 02:37:19;;;;;;;3.03;2.72;;;;;;;;;;5065729;28;20127;-56
2023/10/18 02:39:45;;;;;;;3.00;2.30;;;;;;;;;;5047901;28;20040;-56
2023/10/18 02:42:13;;;;;;;2.55;2.35;;;;;;;;;;5066076;28;20041;-56
2023/10/18 02:44:44;;;;;;;3.30;3.00;;;;;;;;;;5061468;28;20052;-56
2023/10/18 02:47:22;;;;;;;2.75;2.55;;;;;;;;;;5066003;28;20048;-56
2023/10/18 02:49:51;;;;;;;3.17;2.95;;;;;;;;;;5065349;28;20073;-56
2023/10/18 02:52:17;;;;;;;3.53;2.60;;;;;;;;;;5065264;28;20040;-56
2023/10/18 02:54:43;;;;;;;2.95;2.75;;;;;;;;;;5065228;28;20036;-56
2023/10/18 02:57:13;;;;;;;2.72;2.50;;;;;;;;;;5064236;28;20086;-56
2023/10/18 02:59:43;;;;;;;2.42;2.22;;;;;;;;;;5064703;28;20048;-56
2023/10/18 03:02:25;;;;;;;3.20;2.90;;;;;;;;;;5062954;28;20156;-56
2023/10/18 03:04:52;;;;;;;3.58;3.03;;;;;;;;;;5063418;28;20067;-56
2023/10/18 03:07:18;;;;;;;3.80;3.25;;;;;;;;;;5065164;28;20044;-56
2023/10/18 03:09:49;;;;;;;2.58;2.38;;;;;;;;;;5064782;28;20048;-56
2023/10/18 03:12:15;;;;;;;3.20;2.83;;;;;;;;;;5065429;28;20056;-56
2023/10/18 03:14:54;;;;;;;3.15;2.85;;;;;;;;;;5065179;28;20127;-56
2023/10/18 03:17:23;;;;;;;2.53;2.30;;;;;;;;;;5062174;28;20048;-56
2023/10/18 03:19:56;;;;;;;2.35;2.15;;;;;;;;;;5061374;28;20610;-56
2023/10/18 03:22:25;;;;;;;2.97;2.58;;;;;;;;;;5064536;28;20055;-56
2023/10/18 03:24:54;;;;;;;3.13;2.80;;;;;;;;;;5062239;28;20063;-56
2023/10/18 03:27:21;;;;;;;3.42;3.13;;;;;;;;;;5064597;28;20028;-56
2023/10/18 03:29:47;;;;;;;3.13;2.83;;;;;;;;;;5064284;28;20043;-56
2023/10/18 03:32:19;;;;;;;3.20;2.90;;;;;;;;;;5028534;28;20096;-56
2023/10/18 03:34:46;;;;;;;3.85;3.55;;;;;;;;;;5063418;28;20374;-56
2023/10/18 03:37:21;;;;;;;3.60;3.30;;;;;;;;;;5064903;28;20466;-56
2023/10/18 03:39:52;;;;;;;3.78;3.47;;;;;;;;;;5060944;28;20036;-56
2023/10/18 03:42:33;;;;;;;3.83;3.30;;;;;;;;;;5064245;28;20037;-56
2023/10/18 03:45:00;;;;;;;4.68;4.00;;;;;;;;;;5062739;28;20074;-56
2023/10/18 03:47:28;;;;;;;3.75;2.85;;;;;;;;;;5063878;28;20044;-56
2023/10/18 03:49:55;;;;;;;3.78;3.38;;;;;;;;;;5064805;28;20044;-56
2023/10/18 03:52:21;;;;;;;3.38;3.08;;;;;;;;;;5062977;28;20040;-56
2023/10/18 03:57:28;;;;;;;2.95;2.70;;;;;;;;;;5064577;28;20045;-56
2023/10/18 03:59:57;;;;;;;2.40;2.20;;;;;;;;;;5061845;28;20492;-56
2023/10/18 04:04:50;;;;;;;2.30;2.10;;;;;;;;;;5062170;28;20113;-57
2023/10/18 04:07:16;;;;;;;2.85;2.60;;;;;;;;;;5061582;28;20074;-55
2023/10/18 04:10:06;;;;;;;3.65;3.35;;;;;;;;;;5062702;28;20052;-57
2023/10/18 04:12:32;;;;;;;3.13;2.83;;;;;;;;;;5076172;28;20055;-56
2023/10/18 04:14:58;;;;;;;3.38;3.08;;;;;;;;;;5061725;28;20087;-57
2023/10/18 04:20:01;;;;;;;3.55;2.50;;;;;;;;;;5058958;28;20079;-56
2023/10/18 04:22:28;;;;;;;2.50;2.30;;;;;;;;;;5039621;28;20102;-55
2023/10/18 04:24:54;;;;;;;3.10;2.90;;;;;;;;;;5059948;28;21118;-56
2023/10/18 04:27:20;;;;;;;3.20;2.90;;;;;;;;;;5063673;28;20044;-57
2023/10/18 04:29:48;;;;;;;4.30;3.10;;;;;;;;;;5064743;28;20033;-57
2023/10/18 04:32:20;;;;;;;3.70;3.30;;;;;;;;;;5063223;28;20051;-56
2023/10/18 04:34:46;;;;;;;3.70;3.38;;;;;;;;;;5062361;28;20048;-55
2023/10/18 04:37:13;;;;;;;3.55;3.25;;;;;;;;;;5066032;28;20055;-56
2023/10/18 04:39:40;;;;;;;2.15;1.95;;;;;;;;;;5066726;28;20381;-56
2023/10/18 04:42:06;;;;;;;2.60;2.40;;;;;;;;;;5066371;28;20448;-56
2023/10/18 04:44:36;;;;;;;3.20;2.97;;;;;;;;;;5065634;28;20052;-56
2023/10/18 04:47:03;;;;;;;2.65;2.45;;;;;;;;;;5067950;28;20044;-56
2023/10/18 04:49:36;;;;;;;2.58;2.38;;;;;;;;;;5067259;28;20048;-56
2023/10/18 04:52:04;;;;;;;2.33;2.13;;;;;;;;;;5067218;28;20511;-57
2023/10/18 04:54:44;;;;;;;2.65;2.45;;;;;;;;;;5067370;28;20044;-55
2023/10/18 04:57:12;;;;;;;3.75;3.40;;;;;;;;;;5065851;28;20115;-56
2023/10/18 04:59:45;;;;;;;3.33;2.90;;;;;;;;;;5066155;28;20055;-55
2023/10/18 05:02:17;;;;;;;4.03;3.38;;;;;;;;;;5066286;28;20061;-56
2023/10/18 05:04:47;;;;;;;3.80;3.50;;;;;;;;;;5066066;28;20037;-57
2023/10/18 05:09:42;;;;;;;4.47;4.07;;;;;;;;;;5066421;28;20037;-56
2023/10/18 05:17:32;;;;;;;4.13;3.72;;;;;;;;;;5065114;28;20041;-56
2023/10/18 05:20:07;;;;;;;4.85;4.05;;;;;;;;;;5064116;28;20044;-57
2023/10/18 05:22:41;;;;;;;3.97;3.67;;;;;;;;;;5061992;28;20099;-56
2023/10/18 05:27:38;;;;;;;5.40;4.90;;;;;;;;;;5065824;28;20037;-56
2023/10/18 05:30:15;;;;;;;4.30;3.53;;;;;;;;;;5066199;28;20495;-56
2023/10/18 05:35:26;;;;;;;4.00;3.60;;;;;;;;;;5066799;28;20041;-56
2023/10/18 05:37:59;;;;;;;4.50;4.00;;;;;;;;;;5065943;28;20049;-56
2023/10/18 05:43:29;;;;;;;5.60;4.38;;;;;;;;;;5063668;28;20048;-56
2023/10/18 05:45:56;;;;;;;4.10;3.70;;;;;;;;;;5063094;28;20037;-56
2023/10/18 05:48:23;;;;;;;3.70;3.40;;;;;;;;;;5063307;28;20048;-56
2023/10/18 05:50:49;;;;;;;3.58;3.28;;;;;;;;;;5067049;28;20041;-57
2023/10/18 05:53:18;;;;;;;4.28;3.88;;;;;;;;;;5062954;28;20135;-58
2023/10/18 05:55:53;;;;;;;4.40;4.00;;;;;;;;;;5063542;28;20040;-56
2023/10/18 05:58:25;;;;;;;4.65;4.25;;;;;;;;;;5064274;28;20087;-56
2023/10/18 06:00:51;;;;;;;;;;;;;;;;;;5064634;28;20040;-55
2023/10/18 06:03:19;;;;;;;5.88;4.70;;;;;;;;;;5058285;28;19928;-57
2023/10/18 06:05:46;;;;;;;4.35;3.95;;;;;;;;;;5063569;28;20032;-56
2023/10/18 06:08:14;;;;;;;3.88;3.45;;;;;;;;;;5062604;28;20033;-56
2023/10/18 06:10:41;;;;;;;5.07;3.78;;;;;;;;;;5062818;28;20072;-56
2023/10/18 06:13:10;;;;;;;4.30;3.78;;;;;;;;;;5061942;28;20068;-55
2023/10/18 06:15:39;;;;;;;4.65;4.13;;;;;;;;;;5064450;28;20048;-56
2023/10/18 06:18:18;;;;;;;4.45;4.05;;;;;;;;;;5062696;28;20131;-56
2023/10/18 06:20:47;;;;;;;4.28;3.88;;;;;;;;;;5063453;28;20055;-56
2023/10/18 06:23:36;;;;;;;5.85;4.95;;;;;;;;;;5063526;28;20058;-57
2023/10/18 06:28:49;;;;;;;6.53;5.88;;;;;;;;;;5061701;28;20127;-55
2023/10/18 06:31:15;;;;;;;4.72;4.32;;;;;;;;;;5061885;28;20127;-56
2023/10/18 06:33:41;;;;;;;6.55;5.15;;;;;;;;;;5041174;28;20048;-56
2023/10/18 06:36:13;;;;;;;5.03;4.60;;;;;;;;;;5044503;28;20048;-56
2023/10/18 06:38:39;;;;;;;5.80;5.20;;;;;;;;;;5062204;28;20041;-56
2023/10/18 06:41:11;;;;;;;4.68;4.28;;;;;;;;;;5063927;28;20041;-55
2023/10/18 06:43:37;;;;;;;5.20;4.70;;;;;;;;;;5048267;28;20550;-56
2023/10/18 06:46:04;;;;;;;4.63;4.22;;;;;;;;;;5057440;28;20036;-56
2023/10/18 06:48:34;;;;;;;5.05;4.55;;;;;;;;;;5058612;28;20044;-56
2023/10/18 06:50:59;;;;;;;6.75;6.10;;;;;;;;;;5059649;28;20412;-56
2023/10/18 06:53:26;;;;;;;7.38;6.57;;;;;;;;;;5065130;28;20044;-54
2023/10/18 06:55:56;;;;;;;7.40;6.65;;;;;;;;;;5065219;28;20041;-62
2023/10/18 07:00:53;;;;;;;8.68;7.70;;;;;;;;;;5066426;28;20577;-56
2023/10/18 07:03:24;;;;;;;8.15;6.85;;;;;;;;;;5063167;28;20071;-56
2023/10/18 07:05:52;;;;;;;7.53;6.80;;;;;;;;;;5062449;28;20532;-57
2023/10/18 07:08:33;;;;;;;8.27;7.25;;;;;;;;;;5065342;28;20697;-57
2023/10/18 07:11:08;;;;;;;7.60;6.70;;;;;;;;;;5061140;28;20037;-56
2023/10/18 07:13:34;;;;;;;7.80;6.90;;;;;;;;;;5051434;28;20278;-56
2023/10/18 07:16:00;;;;;;;8.60;7.70;;;;;;;;;;5065323;28;20043;-54
2023/10/18 07:18:27;;;;;;;7.72;6.80;;;;;;;;;;5063111;28;20381;-54
2023/10/18 07:20:59;;;;;;;7.47;6.68;;;;;;;;;;5064979;28;20049;-55
2023/10/18 07:23:26;;;;;;;8.10;7.30;;;;;;;;;;5062596;28;20097;-56
2023/10/18 07:25:52;;;;;;;8.45;7.55;;;;;;;;;;5065057;28;20051;-59
2023/10/18 07:28:21;;;;;;;8.63;7.55;;;;;;;;;;5064366;28;20051;-57
2023/10/18 07:30:48;;;;;;;8.85;7.95;;;;;;;;;;5063195;28;20036;-57
2023/10/18 07:33:15;;;;;;;9.05;7.40;;;;;;;;;;5063811;28;20083;-57
2023/10/18 07:35:45;;;;;;;9.93;7.40;;;;;;;;;;5064019;28;20044;-57
2023/10/18 07:38:11;;;;;;;9.13;8.20;;;;;;;;;;5062308;28;20098;-56
2023/10/18 07:40:43;;;;;;;12.68;10.63;;;;;;;;;;5064972;28;20054;-56
2023/10/18 07:43:14;;;;;;;;;;;;;;;;;;5067521;28;20548;-55
2023/10/18 07:45:40;;;;;;;15.50;11.52;;;;;;;;;;5063202;28;19927;-56
2023/10/18 07:48:11;;;;;;;13.45;11.15;;;;;;;;;;5066323;28;20036;-56
2023/10/18 07:53:05;;;;;;;13.27;10.88;;;;;;;;;;5064576;28;20048;-56
2023/10/18 07:55:37;;;;;;;15.43;11.50;;;;;;;;;;5065057;28;20484;-55
2023/10/18 07:58:17;;;;;;;12.68;10.55;;;;;;;;;;5064572;28;20032;-55
2023/10/18 08:01:07;;;;;;;14.02;12.63;;;;;;;;;;5064792;28;20082;-56
2023/10/18 08:03:30;;;;;;;12.02;10.82;;;;;;;;;;5054757;28;20064;-55
2023/10/18 08:05:57;;;;;;;11.32;10.13;;;;;;;;;;5062727;28;20040;-54
2023/10/18 08:08:24;;;;;;;12.50;9.63;;;;;;;;;;5064487;28;20045;-55
2023/10/18 08:10:53;;;;;;;11.48;10.25;;;;;;;;;;5062751;28;20044;-56
2023/10/18 08:13:25;;;;;;;12.57;11.18;;;;;;;;;;5060940;28;20060;-56
2023/10/18 08:15:53;;;;;;;12.82;10.93;;;;;;;;;;5062360;28;20080;-56
2023/10/18 08:18:21;;;;;;;14.60;12.50;;;;;;;;;;5061539;28;20301;-56
2023/10/18 08:23:34;;;;;;;13.93;12.52;;;;;;;;;;5061352;28;20049;-54
2023/10/18 08:26:03;;;;;;;15.15;11.75;;;;;;;;;;5056733;28;20042;-56
2023/10/18 08:28:38;;;;;;;13.65;11.02;;;;;;;;;;5063400;28;20053;-56
2023/10/18 08:31:32;;;;;;;14.75;12.77;;;;;;;;;;5063799;28;20416;-56
2023/10/18 08:34:14;;;;;;;13.63;11.35;;;;;;;;;;5056070;28;20503;-56
2023/10/18 08:36:43;;;;;;;16.60;12.65;;;;;;;;;;5064400;28;20447;-56
2023/10/18 08:39:10;;;;;;;14.93;11.45;;;;;;;;;;5064379;28;20060;-56
2023/10/18 08:41:37;;;;;;;12.48;10.75;;;;;;;;;;5063642;28;20049;-56
2023/10/18 08:44:19;;;;;;;10.90;9.80;;;;;;;;;;5055798;28;20127;-56
2023/10/18 08:49:24;;;;;;;15.65;11.40;;;;;;;;;;5064035;28;20454;-56
2023/10/18 08:52:04;;;;;;;12.70;11.15;;;;;;;;;;5064635;28;20096;-56
2023/10/18 08:54:31;;;;;;;13.13;10.55;;;;;;;;;;5063449;28;20084;-56
2023/10/18 08:56:58;;;;;;;11.07;9.70;;;;;;;;;;5064015;28;20087;-56
2023/10/18 08:59:24;;;;;;;11.77;9.27;;;;;;;;;;5062677;28;20044;-56
2023/10/18 09:04:52;;;;;;;10.25;8.98;;;;;;;;;;5034341;28;20551;-56
2023/10/18 09:07:21;;;;;;;12.60;10.23;;;;;;;;;;5063887;28;20071;-55
2023/10/18 09:09:57;;;;;;;11.23;10.07;;;;;;;;;;5063364;28;20068;-56
2023/10/18 09:17:57;;;;;;;11.25;9.82;;;;;;;;;;5058050;28;20048;-55
2023/10/18 09:20:27;;;;;;;10.45;9.13;;;;;;;;;;5064336;28;20037;-53
2023/10/18 09:22:54;;;;;;;12.55;9.93;;;;;;;;;;5063629;28;20041;-55
2023/10/18 09:25:24;;;;;;;12.18;10.85;;;;;;;;;;5068053;28;20056;-56
2023/10/18 09:28:08;;;;;;;10.27;9.25;;;;;;;;;;5042365;28;20097;-56
2023/10/18 09:30:35;;;;;;;8.98;8.10;;;;;;;;;;5066533;28;20044;-56
2023/10/18 09:33:02;;;;;;;9.65;8.68;;;;;;;;;;5067821;28;20036;-56
2023/10/18 09:35:28;;;;;;;12.15;10.57;;;;;;;;;;5067225;28;20047;-55
2023/10/18 09:37:54;;;;;;;10.20;9.15;;;;;;;;;;5065803;28;20049;-54
2023/10/18 09:40:20;;;;;;;13.60;10.38;;;;;;;;;;5067660;28;20044;-56
2023/10/18 09:42:47;;;;;;;12.60;9.52;;;;;;;;;;5045897;28;20056;-56
2023/10/18 09:45:14;;;;;;;10.85;9.75;;;;;;;;;;5064988;28;20101;-55
2023/10/18 09:47:40;;;;;;;10.95;8.88;;;;;;;;;;5065512;28;20421;-55
2023/10/18 09:50:08;;;;;;;10.52;9.40;;;;;;;;;;5065517;28;20409;-54
2023/10/18 09:52:47;;;;;;;7.97;7.18;;;;;;;;;;5065847;28;20404;-55
2023/10/18 09:55:17;;;;;;;12.07;8.98;;;;;;;;;;5066756;28;20043;-55
2023/10/18 09:57:49;;;;;;;8.98;8.07;;;;;;;;;;5066050;28;20084;-55
2023/10/18 10:00:16;;;;;;;8.05;7.15;;;;;;;;;;5066424;28;20093;-56
2023/10/18 10:02:52;;;;;;;8.55;7.70;;;;;;;;;;5066396;28;20071;-55
2023/10/18 10:05:25;;;;;;;9.05;8.05;;;;;;;;;;5064138;28;20072;-55
2023/10/18 10:07:54;;;;;;;8.93;8.05;;;;;;;;;;5066302;28;20039;-56
2023/10/18 10:10:24;;;;;;;8.63;7.43;;;;;;;;;;5064191;28;20040;-56
2023/10/18 10:12:57;;;;;;;9.30;8.40;;;;;;;;;;5066328;28;20139;-56
2023/10/18 10:15:28;;;;;;;9.55;8.60;;;;;;;;;;5065354;28;20071;-56
2023/10/18 10:17:58;;;;;;;10.50;9.25;;;;;;;;;;5047617;28;20074;-56
2023/10/18 10:20:31;;;;;;;10.13;8.95;;;;;;;;;;5064396;28;20079;-56
2023/10/18 10:23:02;;;;;;;10.55;9.25;;;;;;;;;;5064966;28;20048;-54
2023/10/18 10:25:31;;;;;;;9.95;8.90;;;;;;;;;;5064456;28;20052;-56
2023/10/18 10:28:13;;;;;;;9.13;8.23;;;;;;;;;;5063983;28;20037;-56
2023/10/18 10:30:43;;;;;;;9.90;8.30;;;;;;;;;;5064789;28;20151;-57
2023/10/18 10:33:12;;;;;;;7.93;7.15;;;;;;;;;;5064353;28;20455;-56
2023/10/18 10:35:45;;;;;;;9.68;8.77;;;;;;;;;;5065627;28;20099;-56
2023/10/18 10:38:29;;;;;;;8.10;7.30;;;;;;;;;;5066129;28;20488;-57
2023/10/18 10:41:19;;;;;;;9.23;8.35;;;;;;;;;;5065129;28;20040;-56
2023/10/18 10:44:06;;;;;;;10.23;9.15;;;;;;;;;;5065649;28;20147;-56
2023/10/18 10:46:37;;;;;;;9.15;8.13;;;;;;;;;;5065955;28;20397;-56
2023/10/18 10:49:06;;;;;;;9.13;8.23;;;;;;;;;;5065521;28;20045;-54
2023/10/18 10:51:37;;;;;;;10.18;8.57;;;;;;;;;;5065650;28;20059;-57
2023/10/18 10:54:06;;;;;;;9.45;8.45;;;;;;;;;;5065213;28;20119;-57
2023/10/18 10:56:33;;;;;;;10.57;8.43;;;;;;;;;;5065799;28;20036;-57
2023/10/18 10:59:21;;;;;;;9.50;8.18;;;;;;;;;;5065936;28;20080;-57
2023/10/18 11:04:27;;;;;;;8.05;7.25;;;;;;;;;;5066012;28;20511;-57
2023/10/18 11:06:57;;;;;;;8.65;7.75;;;;;;;;;;5066425;28;20058;-57
2023/10/18 11:09:33;;;;;;;8.30;7.47;;;;;;;;;;5065437;28;20458;-55
2023/10/18 11:12:17;;;;;;;10.15;7.40;;;;;;;;;;5065960;28;20037;-57
2023/10/18 11:14:43;;;;;;;9.27;8.40;;;;;;;;;;5058765;28;20036;-57
2023/10/18 11:19:41;;;;;;;8.48;7.35;;;;;;;;;;5057098;28;20036;-57
2023/10/18 11:22:13;;;;;;;6.82;6.13;;;;;;;;;;5064585;28;20126;-56
2023/10/18 11:24:39;;;;;;;;;;;;;;;;;;5065959;28;20102;-57
2023/10/18 11:27:09;;;;;;;7.43;6.60;;;;;;;;;;5065327;28;19971;-55
2023/10/18 11:29:38;;;;;;;8.80;7.25;;;;;;;;;;5064600;28;20464;-57
2023/10/18 11:32:07;;;;;;;6.65;6.05;;;;;;;;;;5065160;28;20052;-56
2023/10/18 11:34:33;;;;;;;9.05;7.60;;;;;;;;;;5064908;28;20044;-56
2023/10/18 11:37:02;;;;;;;7.03;6.22;;;;;;;;;;5064327;28;20064;-57
2023/10/18 11:39:32;;;;;;;8.05;7.30;;;;;;;;;;5064795;28;20055;-57
2023/10/18 11:41:59;;;;;;;7.97;6.82;;;;;;;;;;5065079;28;20040;-57
2023/10/18 11:44:27;;;;;;;7.80;7.05;;;;;;;;;;5064539;28;20047;-57
2023/10/18 11:46:57;;;;;;;8.02;7.22;;;;;;;;;;5064554;28;20033;-56
2023/10/18 11:49:34;;;;;;;8.75;7.88;;;;;;;;;;5065686;28;20043;-57
2023/10/18 11:52:00;;;;;;;7.30;6.60;;;;;;;;;;5063773;28;20045;-53
2023/10/18 11:54:31;;;;;;;7.50;6.70;;;;;;;;;;5064695;28;20283;-54
2023/10/18 11:56:57;;;;;;;7.10;6.40;;;;;;;;;;5064181;28;20124;-54
2023/10/18 11:59:28;;;;;;;6.53;5.90;;;;;;;;;;5064771;28;20115;-54
2023/10/18 12:01:58;;;;;;;6.45;5.75;;;;;;;;;;5064899;28;20040;-54
2023/10/18 12:04:28;;;;;;;7.80;6.85;;;;;;;;;;5056118;28;20044;-53
2023/10/18 12:06:56;;;;;;;7.90;7.13;;;;;;;;;;5065161;28;20123;-54
2023/10/18 12:11:48;;;;;;;7.68;6.25;;;;;;;;;;5063777;28;20536;-54
2023/10/18 12:14:14;;;;;;;6.93;6.32;;;;;;;;;;5064611;28;20080;-54
2023/10/18 12:16:44;;;;;;;7.18;6.47;;;;;;;;;;5064949;28;20115;-54
2023/10/18 12:19:10;;;;;;;8.57;5.97;;;;;;;;;;5063609;28;20536;-54
2023/10/18 12:21:39;;;;;;;7.28;6.57;;;;;;;;;;5064470;28;20071;-54
2023/10/18 12:24:07;;;;;;;6.93;6.20;;;;;;;;;;5064421;28;20120;-54
2023/10/18 12:26:34;;;;;;;7.95;7.05;;;;;;;;;;5063840;28;20159;-54
2023/10/18 12:29:05;;;;;;;6.50;5.93;;;;;;;;;;5064404;28;20131;-54
2023/10/18 12:31:34;;;;;;;5.97;5.47;;;;;;;;;;5064159;28;20045;-53
2023/10/18 12:34:00;;;;;;;6.72;6.13;;;;;;;;;;5063447;28;20594;-54
2023/10/18 12:36:33;;;;;;;6.05;5.45;;;;;;;;;;5065031;28;20378;-54
2023/10/18 12:38:59;;;;;;;7.63;6.75;;;;;;;;;;5056586;28;20036;-54
2023/10/18 12:41:32;;;;;;;6.38;5.68;;;;;;;;;;5063996;28;20036;-52
2023/10/18 12:44:00;;;;;;;6.82;6.22;;;;;;;;;;5063797;28;20041;-53
2023/10/18 12:46:26;;;;;;;9.00;6.72;;;;;;;;;;5064022;28;20044;-54
2023/10/18 12:48:52;;;;;;;6.30;5.70;;;;;;;;;;5064733;28;20036;-54
2023/10/18 12:51:19;;;;;;;5.15;4.75;;;;;;;;;;5064410;28;20055;-54
2023/10/18 12:53:48;;;;;;;6.63;5.38;;;;;;;;;;5063575;28;20123;-55
2023/10/18 12:58:58;;;;;;;7.55;5.97;;;;;;;;;;5068355;28;20041;-54
2023/10/18 13:01:43;;;;;;;5.90;5.30;;;;;;;;;;5067766;28;20043;-54
2023/10/18 13:04:18;;;;;;;7.60;6.85;;;;;;;;;;5067698;28;20064;-54
2023/10/18 13:06:45;;;;;;;7.35;6.13;;;;;;;;;;5067794;28;20040;-54
2023/10/18 13:14:07;;;;;;;7.70;6.95;;;;;;;;;;5067572;28;20401;-54
2023/10/18 13:16:33;;;;;;;6.80;6.20;;;;;;;;;;5058669;28;20046;-54
2023/10/18 13:19:03;;;;;;;10.55;7.22;;;;;;;;;;5067546;28;20118;-54
2023/10/18 13:21:29;;;;;;;6.35;5.75;;;;;;;;;;5066632;28;20047;-54
2023/10/18 13:24:16;;;;;;;5.45;4.95;;;;;;;;;;5068382;28;20104;-54
2023/10/18 13:26:43;;;;;;;7.38;6.10;;;;;;;;;;5059234;28;20177;-54
2023/10/18 13:29:16;;;;;;;7.40;6.68;;;;;;;;;;5066784;28;20733;-55
2023/10/18 13:31:44;;;;;;;7.15;6.28;;;;;;;;;;5067247;28;20044;-54
2023/10/18 13:34:18;;;;;;;7.20;6.50;;;;;;;;;;5067172;28;20424;-54
2023/10/18 13:36:50;;;;;;;7.80;6.70;;;;;;;;;;5066629;28;20108;-55
2023/10/18 13:39:17;;;;;;;7.43;6.65;;;;;;;;;;5066086;28;20150;-54
2023/10/18 13:41:46;;;;;;;7.47;6.70;;;;;;;;;;5066674;28;20040;-52
2023/10/18 13:44:31;;;;;;;7.57;6.78;;;;;;;;;;5066364;28;20265;-55
2023/10/18 13:47:00;;;;;;;7.13;6.30;;;;;;;;;;5068498;28;20041;-54
2023/10/18 13:49:27;;;;;;;8.93;6.78;;;;;;;;;;5070734;28;20048;-54
2023/10/18 13:51:53;;;;;;;8.05;7.22;;;;;;;;;;5068143;28;20070;-53
2023/10/18 13:54:20;;;;;;;7.93;6.25;;;;;;;;;;5069083;28;20036;-54
2023/10/18 13:56:46;;;;;;;6.43;5.78;;;;;;;;;;5065082;28;20045;-54
2023/10/18 13:59:13;;;;;;;6.63;6.03;;;;;;;;;;5068480;28;20060;-54
2023/10/18 14:01:40;;;;;;;7.03;6.35;;;;;;;;;;5068667;28;20078;-54
2023/10/18 14:04:08;;;;;;;7.88;6.68;;;;;;;;;;5067673;28;20088;-53
2023/10/18 14:06:34;;;;;;;7.40;6.47;;;;;;;;;;5068112;28;20048;-53
2023/10/18 14:09:00;;;;;;;5.88;5.30;;;;;;;;;;5066498;28;20530;-54
2023/10/18 14:11:29;;;;;;;6.95;6.13;;;;;;;;;;5067555;28;20044;-54
2023/10/18 14:13:55;;;;;;;7.95;7.20;;;;;;;;;;5067937;28;20048;-53
2023/10/18 14:16:22;;;;;;;9.68;6.55;;;;;;;;;;5066292;28;20039;-54
2023/10/18 14:18:50;;;;;;;7.35;6.43;;;;;;;;;;5066797;28;20116;-54
2023/10/18 14:21:16;;;;;;;7.40;6.20;;;;;;;;;;5067824;28;20480;-54
2023/10/18 14:23:44;;;;;;;7.30;6.60;;;;;;;;;;5066317;28;20500;-53
2023/10/18 14:26:10;;;;;;;8.15;6.55;;;;;;;;;;5065948;28;20056;-54
2023/10/18 14:28:36;;;;;;;7.25;6.55;;;;;;;;;;5066441;28;20308;-56
2023/10/18 14:31:08;;;;;;;8.30;7.15;;;;;;;;;;5068004;28;20064;-56
2023/10/18 14:33:34;;;;;;;7.68;6.63;;;;;;;;;;5062598;28;20133;-54
2023/10/18 14:36:29;;;;;;;7.85;7.05;;;;;;;;;;5064556;28;20461;-56
2023/10/18 14:38:56;;;;;;;9.02;7.03;;;;;;;;;;5060033;28;20053;-57
2023/10/18 14:41:24;;;;;;;7.95;7.15;;;;;;;;;;5064999;28;20083;-56
2023/10/18 14:43:56;;;;;;;8.27;7.25;;;;;;;;;;5064561;28;20051;-57
2023/10/18 14:46:27;;;;;;;7.13;5.93;;;;;;;;;;5063980;28;20040;-56
2023/10/18 14:48:56;;;;;;;6.95;6.25;;;;;;;;;;5063455;28;20040;-57
2023/10/18 14:51:24;;;;;;;8.98;7.80;;;;;;;;;;5062724;28;20119;-56
2023/10/18 14:53:51;;;;;;;9.40;7.32;;;;;;;;;;5062931;28;20052;-57
2023/10/18 14:56:17;;;;;;;8.75;6.72;;;;;;;;;;5063801;28;20052;-56
2023/10/18 14:58:46;;;;;;;7.20;6.50;;;;;;;;;;5064204;28;20036;-54
2023/10/18 15:01:13;;;;;;;7.18;6.47;;;;;;;;;;5063283;28;20048;-53
2023/10/18 15:03:39;;;;;;;7.80;6.30;;;;;;;;;;5060504;28;20433;-56
2023/10/18 15:06:06;;;;;;;5.65;5.15;;;;;;;;;;5063684;28;20044;-57
2023/10/18 15:08:32;;;;;;;7.60;6.55;;;;;;;;;;5061461;28;20049;-57
2023/10/18 15:10:58;;;;;;;6.80;5.95;;;;;;;;;;5063714;28;20040;-57
2023/10/18 15:13:24;;;;;;;7.47;6.38;;;;;;;;;;5063722;28;20044;-56
2023/10/18 15:15:50;;;;;;;7.40;6.65;;;;;;;;;;5063046;28;20056;-57
2023/10/18 15:18:17;;;;;;;8.32;6.55;;;;;;;;;;5064257;28;20036;-56
2023/10/18 15:20:43;;;;;;;6.63;5.90;;;;;;;;;;5063240;28;20036;-57
2023/10/18 15:23:11;;;;;;;6.32;5.47;;;;;;;;;;5064613;28;20109;-57
2023/10/18 15:25:39;;;;;;;7.55;6.07;;;;;;;;;;5061780;28;20053;-57
2023/10/18 15:28:08;;;;;;;7.32;5.47;;;;;;;;;;5059820;28;20048;-57
2023/10/18 15:30:34;;;;;;;6.50;5.90;;;;;;;;;;5061143;28;20071;-57
2023/10/18 15:33:00;;;;;;;7.38;5.97;;;;;;;;;;5063103;28;20040;-56
2023/10/18 15:35:30;;;;;;;8.00;6.75;;;;;;;;;;5062720;28;20048;-56
2023/10/18 15:37:56;;;;;;;7.43;6.03;;;;;;;;;;5061875;28;20032;-56
2023/10/18 15:40:22;;;;;;;7.95;6.68;;;;;;;;;;5063267;28;20275;-56
2023/10/18 15:42:48;;;;;;;8.15;6.80;;;;;;;;;;5061734;28;20406;-56
2023/10/18 15:45:17;;;;;;;8.32;6.22;;;;;;;;;;5063279;28;20042;-56
2023/10/18 15:47:44;;;;;;;7.82;6.50;;;;;;;;;;5062492;28;20143;-56
2023/10/18 15:50:11;;;;;;;10.13;6.03;;;;;;;;;;5062586;28;20051;-56
2023/10/18 15:52:37;;;;;;;7.20;6.15;;;;;;;;;;5061379;28;20402;-55
2023/10/18 15:55:13;;;;;;;7.88;6.07;;;;;;;;;;5061990;28;20047;-55
2023/10/18 15:57:39;;;;;;;7.63;6.72;;;;;;;;;;5062806;28;20032;-56